Time;durP1;ratioP1;P1;durP2;ratioP2;P2;SDS_P1;SDS_P2;PMS_P1;PMS_P2;Temp;Humidity;BMP_temperature;BMP_pressure;BME280_temperature;BME280_humidity;BME280_pressure;Samples;Min_cycle;Max_cycle;Signal;HPM_P1;HPM_P2
2023/01/04 00:01:00;;;;;;;10.70;2.72;;;;;;;;;;5123803;27;20229;-72
2023/01/04 00:03:27;;;;;;;6.75;2.33;;;;;;;;;;5122826;27;20143;-72
2023/01/04 00:05:56;;;;;;;6.80;2.28;;;;;;;;;;5104337;27;20178;-73
2023/01/04 00:08:22;;;;;;;6.97;2.53;;;;;;;;;;5121601;27;20044;-73
2023/01/04 00:10:48;;;;;;;4.00;2.10;;;;;;;;;;5112179;27;20048;-70
2023/01/04 00:13:15;;;;;;;5.47;2.33;;;;;;;;;;5127368;27;20044;-69
2023/01/04 00:15:41;;;;;;;2.85;2.00;;;;;;;;;;5137020;27;20150;-70
2023/01/04 00:18:08;;;;;;;6.38;2.28;;;;;;;;;;5123460;27;20056;-72
2023/01/04 00:20:34;;;;;;;3.63;2.42;;;;;;;;;;5121641;27;20573;-70
2023/01/04 00:23:00;;;;;;;5.55;2.78;;;;;;;;;;5125568;27;20116;-74
2023/01/04 00:25:26;;;;;;;7.78;2.40;;;;;;;;;;5110750;27;20052;-74
2023/01/04 00:27:53;;;;;;;3.80;2.28;;;;;;;;;;5113587;27;20048;-74
2023/01/04 00:30:19;;;;;;;4.95;2.85;;;;;;;;;;5117467;27;20052;-72
2023/01/04 00:32:45;;;;;;;6.72;2.65;;;;;;;;;;5105172;27;20509;-73
2023/01/04 00:35:11;;;;;;;6.50;3.03;;;;;;;;;;5103951;27;20052;-72
2023/01/04 00:37:58;;;;;;;7.97;3.00;;;;;;;;;;5103361;27;20048;-73
2023/01/04 00:40:24;;;;;;;8.85;2.50;;;;;;;;;;5106312;27;20534;-72
2023/01/04 00:42:50;;;;;;;4.53;2.38;;;;;;;;;;5110711;27;20051;-74
2023/01/04 00:45:17;;;;;;;5.35;2.25;;;;;;;;;;5113743;27;20040;-74
2023/01/04 00:47:43;;;;;;;5.15;2.35;;;;;;;;;;5109314;27;20425;-74
2023/01/04 00:50:09;;;;;;;5.97;2.10;;;;;;;;;;5119908;27;20055;-76
2023/01/04 00:52:36;;;;;;;4.55;2.30;;;;;;;;;;5099380;28;20063;-73
2023/01/04 00:55:03;;;;;;;6.22;2.17;;;;;;;;;;5110378;27;20068;-75
2023/01/04 00:57:29;;;;;;;3.08;2.22;;;;;;;;;;5123989;27;20519;-72
2023/01/04 00:59:55;;;;;;;3.83;2.13;;;;;;;;;;5117980;27;20058;-75
2023/01/04 01:02:22;;;;;;;5.07;2.20;;;;;;;;;;5115306;27;20641;-74
2023/01/04 01:04:48;;;;;;;3.08;1.77;;;;;;;;;;5085115;28;20486;-74
2023/01/04 01:07:15;;;;;;;3.53;2.30;;;;;;;;;;5109092;27;20592;-70
2023/01/04 01:09:41;;;;;;;6.35;2.00;;;;;;;;;;5119337;27;20077;-70
2023/01/04 01:12:08;;;;;;;2.45;2.08;;;;;;;;;;5103979;27;20052;-72
2023/01/04 01:14:34;;;;;;;3.08;1.90;;;;;;;;;;5105963;27;20109;-71
2023/01/04 01:17:01;;;;;;;4.68;2.35;;;;;;;;;;5098480;27;20075;-71
2023/01/04 01:19:27;;;;;;;2.80;1.90;;;;;;;;;;5104087;27;20079;-76
2023/01/04 01:21:55;;;;;;;4.10;2.10;;;;;;;;;;5108034;27;20793;-70
2023/01/04 01:24:22;;;;;;;2.30;1.83;;;;;;;;;;5123875;27;20490;-72
2023/01/04 01:26:48;;;;;;;2.28;1.85;;;;;;;;;;5111771;27;20052;-72
2023/01/04 01:29:15;;;;;;;4.50;2.63;;;;;;;;;;5108244;27;20052;-70
2023/01/04 01:31:41;;;;;;;4.80;3.03;;;;;;;;;;5102477;27;20135;-71
2023/01/04 01:34:08;;;;;;;3.05;1.80;;;;;;;;;;5105240;27;20556;-72
2023/01/04 01:36:35;;;;;;;1.80;1.70;;;;;;;;;;5092770;27;20055;-73
2023/01/04 01:39:01;;;;;;;2.88;2.00;;;;;;;;;;5115446;27;20063;-71
2023/01/04 01:41:29;;;;;;;3.72;2.20;;;;;;;;;;5104118;27;20493;-72
2023/01/04 01:43:57;;;;;;;2.90;2.15;;;;;;;;;;5090260;27;20061;-71
2023/01/04 01:46:38;;;;;;;4.75;2.08;;;;;;;;;;5091106;28;20151;-72
2023/01/04 01:49:15;;;;;;;2.58;2.15;;;;;;;;;;5116934;27;20040;-74
2023/01/04 01:51:42;;;;;;;2.95;2.15;;;;;;;;;;5119629;27;20047;-71
2023/01/04 01:54:15;;;;;;;5.18;2.15;;;;;;;;;;5123390;27;20075;-71
2023/01/04 01:56:43;;;;;;;3.30;2.13;;;;;;;;;;5118239;27;20083;-69
2023/01/04 01:59:10;;;;;;;2.67;2.10;;;;;;;;;;5111297;27;20062;-75
2023/01/04 02:01:37;;;;;;;2.67;2.38;;;;;;;;;;5117257;27;20428;-73
2023/01/04 02:04:04;;;;;;;7.13;2.60;;;;;;;;;;5114221;27;20506;-71
2023/01/04 02:06:32;;;;;;;6.95;2.85;;;;;;;;;;5105943;27;20062;-70
2023/01/04 02:09:00;;;;;;;4.68;2.90;;;;;;;;;;5102543;27;20086;-71
2023/01/04 02:11:27;;;;;;;2.88;2.67;;;;;;;;;;5112442;27;20675;-71
2023/01/04 02:16:50;;;;;;;;;;;;;;;;;;5079053;27;20071;-71
2023/01/04 02:19:16;;;;;;;;;;;;;;;;;;5106159;27;45317;-72
2023/01/04 02:22:01;;;;;;;2.80;2.60;;;;;;;;;;5105162;27;44493;-72
2023/01/04 02:24:38;;;;;;;3.77;3.30;;;;;;;;;;5101116;27;20131;-72
2023/01/04 02:27:14;;;;;;;2.28;2.08;;;;;;;;;;5104025;27;20058;-70
2023/01/04 02:29:40;;;;;;;6.50;3.60;;;;;;;;;;5108930;27;20052;-69
2023/01/04 02:32:32;;;;;;;5.53;3.55;;;;;;;;;;5122469;27;20501;-71
2023/01/04 02:35:17;;;;;;;4.40;3.42;;;;;;;;;;5111372;27;20059;-72
2023/01/04 02:37:54;;;;;;;5.30;3.60;;;;;;;;;;5105629;27;20084;-74
2023/01/04 02:40:29;;;;;;;4.25;3.33;;;;;;;;;;5115707;27;20289;-73
2023/01/04 02:45:53;;;;;;;5.18;4.00;;;;;;;;;;5105732;27;20521;-70
2023/01/04 02:51:23;;;;;;;6.63;4.40;;;;;;;;;;5109866;27;20048;-72
2023/01/04 02:53:49;;;;;;;5.55;4.78;;;;;;;;;;5099711;27;20055;-73
2023/01/04 02:56:34;;;;;;;9.73;4.93;;;;;;;;;;5121756;27;20052;-77
2023/01/04 02:59:01;;;;;;;6.05;5.18;;;;;;;;;;5121078;27;20048;-78
2023/01/04 03:07:33;;;;;;;7.30;4.80;;;;;;;;;;5114146;27;20051;-76
2023/01/04 03:10:04;;;;;;;9.75;6.50;;;;;;;;;;5094910;27;20047;-72
2023/01/04 03:12:34;;;;;;;8.30;5.60;;;;;;;;;;5113958;27;20607;-75
2023/01/04 03:15:11;;;;;;;7.60;6.80;;;;;;;;;;5126683;27;20056;-78
2023/01/04 03:17:58;;;;;;;7.20;6.45;;;;;;;;;;5116751;27;20056;-75
2023/01/04 03:20:29;;;;;;;8.23;4.72;;;;;;;;;;5104738;27;20050;-73
2023/01/04 03:37:09;;;;;;;8.40;7.43;;;;;;;;;;5118198;27;20055;-74
2023/01/04 03:48:32;;;;;;;6.95;6.25;;;;;;;;;;5104384;27;20510;-75
2023/01/04 03:51:04;;;;;;;8.63;6.65;;;;;;;;;;5111931;27;20495;-74
2023/01/04 03:53:37;;;;;;;8.75;6.57;;;;;;;;;;5119133;27;20059;-74
2023/01/04 03:56:04;;;;;;;6.95;6.25;;;;;;;;;;5101575;27;20127;-74
2023/01/04 03:58:30;;;;;;;11.65;6.53;;;;;;;;;;5124798;27;20082;-72
2023/01/04 04:01:02;;;;;;;5.18;4.68;;;;;;;;;;5123071;27;20056;-75
2023/01/04 04:09:00;;;;;;;6.05;4.60;;;;;;;;;;5103575;27;20495;-76
2023/01/04 04:11:29;;;;;;;4.78;4.30;;;;;;;;;;5105779;27;20050;-71
2023/01/04 04:13:55;;;;;;;7.85;5.13;;;;;;;;;;5104257;27;20131;-73
2023/01/04 04:16:22;;;;;;;4.65;4.18;;;;;;;;;;5122067;27;20055;-70
2023/01/04 04:18:48;;;;;;;4.25;3.72;;;;;;;;;;5112636;27;20060;-75
2023/01/04 04:21:14;;;;;;;7.25;3.47;;;;;;;;;;5104016;27;20055;-73
2023/01/04 04:23:41;;;;;;;4.00;3.20;;;;;;;;;;5104260;27;20514;-73
2023/01/04 04:26:07;;;;;;;6.15;3.17;;;;;;;;;;5085713;28;20457;-74
2023/01/04 04:28:34;;;;;;;5.63;3.25;;;;;;;;;;5111643;27;20120;-72
2023/01/04 04:31:00;;;;;;;3.50;3.20;;;;;;;;;;5102390;27;20507;-73
2023/01/04 04:33:26;;;;;;;3.75;2.92;;;;;;;;;;5116469;27;20052;-72
2023/01/04 04:35:53;;;;;;;4.15;3.13;;;;;;;;;;5103571;27;20518;-75
2023/01/04 04:38:20;;;;;;;4.88;3.88;;;;;;;;;;5121884;27;20686;-75
2023/01/04 04:43:32;;;;;;;3.80;3.50;;;;;;;;;;5108524;27;20055;-75
2023/01/04 04:45:59;;;;;;;4.40;3.35;;;;;;;;;;5102889;27;20474;-73
2023/01/04 04:48:25;;;;;;;3.42;3.13;;;;;;;;;;5104330;28;20059;-77
2023/01/04 04:50:52;;;;;;;4.22;3.20;;;;;;;;;;5114598;27;20502;-76
2023/01/04 04:53:18;;;;;;;6.25;3.80;;;;;;;;;;5112111;27;20058;-76
2023/01/04 04:55:44;;;;;;;4.07;3.67;;;;;;;;;;5116944;27;20052;-74
2023/01/04 04:58:11;;;;;;;7.13;4.28;;;;;;;;;;5105006;27;20512;-76
2023/01/04 05:00:39;;;;;;;4.25;3.10;;;;;;;;;;5103074;27;20425;-72
2023/01/04 05:03:06;;;;;;;4.13;2.83;;;;;;;;;;5103989;27;20477;-77
2023/01/04 05:05:32;;;;;;;4.57;3.47;;;;;;;;;;5115166;27;20105;-74
2023/01/04 05:07:59;;;;;;;3.67;3.17;;;;;;;;;;5106711;27;20051;-74
2023/01/04 05:10:25;;;;;;;4.80;2.95;;;;;;;;;;5085117;28;20454;-75
2023/01/04 05:13:00;;;;;;;6.03;3.85;;;;;;;;;;5105496;27;20039;-74
2023/01/04 05:15:34;;;;;;;6.57;3.80;;;;;;;;;;5104373;27;20498;-76
2023/01/04 05:18:01;;;;;;;4.40;3.38;;;;;;;;;;5103565;27;20465;-71
2023/01/04 05:20:28;;;;;;;4.95;4.45;;;;;;;;;;5102175;27;20514;-70
2023/01/04 05:22:54;;;;;;;4.95;3.45;;;;;;;;;;5103543;27;20140;-77
2023/01/04 05:25:20;;;;;;;4.93;4.25;;;;;;;;;;5105490;27;20066;-73
2023/01/04 05:27:47;;;;;;;4.10;3.67;;;;;;;;;;5114073;27;20046;-75
2023/01/04 05:32:59;;;;;;;5.45;4.15;;;;;;;;;;5103182;27;20048;-75
2023/01/04 05:35:26;;;;;;;4.47;4.07;;;;;;;;;;5106964;27;20490;-72
2023/01/04 05:37:52;;;;;;;4.57;3.63;;;;;;;;;;5089722;28;20047;-72
2023/01/04 05:40:19;;;;;;;4.35;3.10;;;;;;;;;;5115201;27;20051;-76
2023/01/04 05:42:45;;;;;;;7.93;4.30;;;;;;;;;;5104824;27;20044;-73
2023/01/04 05:45:12;;;;;;;4.20;3.80;;;;;;;;;;5102988;27;20048;-70
2023/01/04 05:47:38;;;;;;;4.90;4.18;;;;;;;;;;5107453;27;20153;-69
2023/01/04 05:50:05;;;;;;;7.00;4.50;;;;;;;;;;5111037;27;20043;-71
2023/01/04 05:52:32;;;;;;;5.82;4.38;;;;;;;;;;5111328;27;20138;-71
2023/01/04 05:54:58;;;;;;;4.32;3.80;;;;;;;;;;5104113;27;20062;-71
2023/01/04 05:57:25;;;;;;;5.38;4.20;;;;;;;;;;5122490;27;20512;-71
2023/01/04 05:59:51;;;;;;;4.45;4.03;;;;;;;;;;5108693;27;20051;-71
2023/01/04 06:02:19;;;;;;;4.15;3.47;;;;;;;;;;5115348;27;20548;-71
2023/01/04 06:04:45;;;;;;;6.68;4.25;;;;;;;;;;5111915;27;20505;-71
2023/01/04 06:07:15;;;;;;;7.55;4.30;;;;;;;;;;5104308;27;20056;-70
2023/01/04 06:09:42;;;;;;;6.15;3.78;;;;;;;;;;5123585;27;20532;-71
2023/01/04 06:12:09;;;;;;;3.95;3.55;;;;;;;;;;5119338;27;20143;-71
2023/01/04 06:14:36;;;;;;;6.72;3.65;;;;;;;;;;5103317;28;20048;-72
2023/01/04 06:17:03;;;;;;;4.68;3.55;;;;;;;;;;5112067;27;20459;-69
2023/01/04 06:19:29;;;;;;;3.53;3.22;;;;;;;;;;5114981;27;20048;-70
2023/01/04 06:21:56;;;;;;;3.95;3.55;;;;;;;;;;5115213;27;20120;-69
2023/01/04 06:24:23;;;;;;;3.53;2.95;;;;;;;;;;5122113;27;20510;-69
2023/01/04 06:26:49;;;;;;;3.42;3.10;;;;;;;;;;5121713;27;20511;-69
2023/01/04 06:29:16;;;;;;;3.95;3.38;;;;;;;;;;5109522;27;20048;-69
2023/01/04 06:31:42;;;;;;;4.05;3.65;;;;;;;;;;5132933;27;20055;-70
2023/01/04 06:34:13;;;;;;;5.53;3.90;;;;;;;;;;5109409;27;20054;-70
2023/01/04 06:36:40;;;;;;;6.00;4.13;;;;;;;;;;5103060;27;20052;-70
2023/01/04 06:39:06;;;;;;;3.80;3.40;;;;;;;;;;5103959;27;20999;-71
2023/01/04 06:41:33;;;;;;;4.47;3.95;;;;;;;;;;5111804;27;20509;-70
2023/01/04 06:43:59;;;;;;;5.13;3.80;;;;;;;;;;5102594;28;20083;-69
2023/01/04 06:46:26;;;;;;;6.95;4.20;;;;;;;;;;5102457;27;20458;-71
2023/01/04 06:48:52;;;;;;;4.60;4.05;;;;;;;;;;5117914;27;20052;-69
2023/01/04 06:51:22;;;;;;;6.43;4.05;;;;;;;;;;5117283;27;20059;-70
2023/01/04 06:53:48;;;;;;;4.70;3.80;;;;;;;;;;5092293;27;20048;-71
2023/01/04 06:56:15;;;;;;;4.05;3.65;;;;;;;;;;5115905;27;20414;-70
2023/01/04 06:58:41;;;;;;;7.35;4.38;;;;;;;;;;5107567;27;20051;-72
2023/01/04 07:01:08;;;;;;;5.90;4.15;;;;;;;;;;5091403;27;20058;-71
2023/01/04 07:03:34;;;;;;;5.38;3.92;;;;;;;;;;5116197;27;20101;-71
2023/01/04 07:06:05;;;;;;;6.30;3.85;;;;;;;;;;5115505;27;20507;-73
2023/01/04 07:08:32;;;;;;;5.80;4.05;;;;;;;;;;5105857;27;20048;-71
2023/01/04 07:10:59;;;;;;;7.90;4.75;;;;;;;;;;5117304;27;20097;-71
2023/01/04 07:13:25;;;;;;;4.82;3.85;;;;;;;;;;5120209;27;20087;-73
2023/01/04 07:15:51;;;;;;;8.52;4.80;;;;;;;;;;5115867;27;20542;-73
2023/01/04 07:18:18;;;;;;;10.85;3.97;;;;;;;;;;5113899;27;20534;-71
2023/01/04 07:20:44;;;;;;;7.00;4.22;;;;;;;;;;5119532;27;20642;-69
2023/01/04 07:23:11;;;;;;;5.07;4.57;;;;;;;;;;5113510;27;20052;-70
2023/01/04 07:25:37;;;;;;;7.50;4.72;;;;;;;;;;5105534;27;20048;-71
2023/01/04 07:28:04;;;;;;;11.45;5.15;;;;;;;;;;5104606;27;20127;-71
2023/01/04 07:30:30;;;;;;;7.57;5.40;;;;;;;;;;5104106;27;20091;-73
2023/01/04 07:32:56;;;;;;;10.55;4.95;;;;;;;;;;5131881;27;20138;-70
2023/01/04 07:35:23;;;;;;;11.93;5.85;;;;;;;;;;5123724;27;20515;-69
2023/01/04 07:37:49;;;;;;;7.63;4.55;;;;;;;;;;5122702;27;20051;-69
2023/01/04 07:40:24;;;;;;;8.00;5.00;;;;;;;;;;5122808;27;20130;-70
2023/01/04 07:42:55;;;;;;;7.75;4.75;;;;;;;;;;5116843;27;20052;-69
2023/01/04 07:45:22;;;;;;;8.02;4.32;;;;;;;;;;5123788;27;20043;-70
2023/01/04 07:47:48;;;;;;;7.28;4.47;;;;;;;;;;5121299;27;20048;-70
2023/01/04 07:50:14;;;;;;;11.95;4.20;;;;;;;;;;5110505;27;20048;-69
2023/01/04 07:52:41;;;;;;;4.13;3.67;;;;;;;;;;5115051;27;20054;-69
2023/01/04 07:55:07;;;;;;;4.13;3.30;;;;;;;;;;5124852;27;20075;-69
2023/01/04 07:57:33;;;;;;;3.70;3.30;;;;;;;;;;5109348;27;20426;-69
2023/01/04 08:00:00;;;;;;;6.18;3.78;;;;;;;;;;5110430;27;20519;-69
2023/01/04 08:02:26;;;;;;;7.53;4.03;;;;;;;;;;5110673;27;20063;-69
2023/01/04 08:04:54;;;;;;;8.38;3.30;;;;;;;;;;5124286;27;20059;-71
2023/01/04 08:07:20;;;;;;;5.93;3.13;;;;;;;;;;5108556;27;21334;-70
2023/01/04 08:09:47;;;;;;;6.18;2.90;;;;;;;;;;5086263;28;20047;-70
2023/01/04 08:12:13;;;;;;;6.55;3.05;;;;;;;;;;5104024;27;20060;-69
2023/01/04 08:14:40;;;;;;;6.35;3.03;;;;;;;;;;5116530;27;20553;-70
2023/01/04 08:17:06;;;;;;;5.88;2.97;;;;;;;;;;5125178;27;20059;-71
2023/01/04 08:19:32;;;;;;;2.28;2.08;;;;;;;;;;5128461;27;20043;-70
2023/01/04 08:21:59;;;;;;;5.85;3.28;;;;;;;;;;5125648;27;20168;-70
2023/01/04 08:24:26;;;;;;;5.78;3.40;;;;;;;;;;5116241;27;20044;-71
2023/01/04 08:26:52;;;;;;;4.75;3.13;;;;;;;;;;5116638;27;20692;-71
2023/01/04 08:29:19;;;;;;;3.47;2.80;;;;;;;;;;5102255;27;20509;-70
2023/01/04 08:31:45;;;;;;;4.57;3.08;;;;;;;;;;5103955;28;20617;-69
2023/01/04 08:34:11;;;;;;;4.00;2.88;;;;;;;;;;5103329;27;20466;-69
2023/01/04 08:36:46;;;;;;;5.07;2.95;;;;;;;;;;5119933;27;20267;-70
2023/01/04 08:39:12;;;;;;;2.85;2.53;;;;;;;;;;5104191;27;20059;-70
2023/01/04 08:41:52;;;;;;;3.38;2.55;;;;;;;;;;5107569;27;20055;-70
2023/01/04 08:44:28;;;;;;;3.63;2.55;;;;;;;;;;5121698;27;20082;-69
2023/01/04 08:46:54;;;;;;;5.97;2.58;;;;;;;;;;5124385;27;20440;-71
2023/01/04 08:49:21;;;;;;;2.50;2.30;;;;;;;;;;5106975;27;20939;-70
2023/01/04 08:51:48;;;;;;;3.92;2.30;;;;;;;;;;5108084;27;20143;-71
2023/01/04 08:54:14;;;;;;;6.00;2.22;;;;;;;;;;5106392;27;20406;-71
2023/01/04 08:56:41;;;;;;;4.35;1.80;;;;;;;;;;5108408;27;20097;-70
2023/01/04 08:59:11;;;;;;;2.90;2.10;;;;;;;;;;5113688;27;20064;-69
2023/01/04 09:01:38;;;;;;;2.85;2.10;;;;;;;;;;5103374;27;20105;-70
2023/01/04 09:04:04;;;;;;;2.35;1.98;;;;;;;;;;5111973;27;20047;-69
2023/01/04 09:06:31;;;;;;;2.13;1.92;;;;;;;;;;5113303;27;20110;-70
2023/01/04 09:08:57;;;;;;;2.10;1.77;;;;;;;;;;5106687;27;20059;-71
2023/01/04 09:11:25;;;;;;;3.03;1.88;;;;;;;;;;5121364;27;20140;-70
2023/01/04 09:13:55;;;;;;;3.67;1.83;;;;;;;;;;5103742;27;20056;-71
2023/01/04 09:16:31;;;;;;;1.90;1.80;;;;;;;;;;5114032;27;20485;-70
2023/01/04 09:18:58;;;;;;;1.60;1.33;;;;;;;;;;5111766;27;20048;-69
2023/01/04 09:21:24;;;;;;;4.38;1.75;;;;;;;;;;5103192;28;20242;-71
2023/01/04 09:23:50;;;;;;;1.98;1.60;;;;;;;;;;5114667;27;20052;-71
2023/01/04 09:26:20;;;;;;;1.85;1.35;;;;;;;;;;5113892;27;20075;-70
2023/01/04 09:28:47;;;;;;;1.58;1.48;;;;;;;;;;5105239;27;20048;-70
2023/01/04 09:31:15;;;;;;;2.28;1.30;;;;;;;;;;5102370;27;20510;-69
2023/01/04 09:33:41;;;;;;;1.48;1.27;;;;;;;;;;5103715;27;20463;-70
2023/01/04 09:36:28;;;;;;;1.67;1.05;;;;;;;;;;5119755;27;20040;-70
2023/01/04 09:38:54;;;;;;;1.70;1.27;;;;;;;;;;5106929;27;20071;-70
2023/01/04 09:41:26;;;;;;;0.82;0.82;;;;;;;;;;5103144;27;20421;-69
2023/01/04 09:44:00;;;;;;;0.90;0.90;;;;;;;;;;5103372;27;20134;-70
2023/01/04 09:46:26;;;;;;;1.10;1.00;;;;;;;;;;5120839;27;20062;-70
2023/01/04 09:48:55;;;;;;;1.38;1.13;;;;;;;;;;5114894;27;20075;-69
2023/01/04 09:51:31;;;;;;;2.22;0.95;;;;;;;;;;5110504;27;20415;-69
2023/01/04 09:54:01;;;;;;;1.27;0.90;;;;;;;;;;5102692;27;20047;-71
2023/01/04 09:56:30;;;;;;;2.05;0.70;;;;;;;;;;5103264;27;20058;-69
2023/01/04 09:58:57;;;;;;;1.65;1.00;;;;;;;;;;5102735;27;20083;-72
2023/01/04 10:01:26;;;;;;;1.17;0.95;;;;;;;;;;5101332;27;20056;-71
2023/01/04 10:03:59;;;;;;;1.73;1.00;;;;;;;;;;5102404;27;20545;-71
2023/01/04 10:06:26;;;;;;;2.75;1.02;;;;;;;;;;5103256;28;20133;-70
2023/01/04 10:08:56;;;;;;;1.00;0.90;;;;;;;;;;5130811;27;20414;-73
2023/01/04 10:11:35;;;;;;;3.00;1.00;;;;;;;;;;5101549;27;20087;-71
2023/01/04 10:14:21;;;;;;;1.67;1.20;;;;;;;;;;5103189;27;20071;-72
2023/01/04 10:16:50;;;;;;;2.38;1.20;;;;;;;;;;5112552;27;20048;-73
2023/01/04 10:19:55;;;;;;;1.65;1.02;;;;;;;;;;5104084;27;20064;-71
2023/01/04 10:22:41;;;;;;;2.78;1.00;;;;;;;;;;5117551;27;20056;-70
2023/01/04 10:25:14;;;;;;;1.52;0.98;;;;;;;;;;5119128;27;20135;-71
2023/01/04 10:27:52;;;;;;;1.70;0.80;;;;;;;;;;5117893;27;21066;-70
2023/01/04 10:30:41;;;;;;;3.28;0.90;;;;;;;;;;5105787;27;20060;-71
2023/01/04 10:33:14;;;;;;;6.80;2.17;;;;;;;;;;5103325;27;20052;-70
2023/01/04 10:35:42;;;;;;;2.55;1.20;;;;;;;;;;5102351;27;20518;-70
2023/01/04 10:38:13;;;;;;;3.10;1.35;;;;;;;;;;5084812;28;20072;-76
2023/01/04 10:40:39;;;;;;;5.95;2.05;;;;;;;;;;5102034;27;20127;-75
2023/01/04 10:43:15;;;;;;;1.90;1.23;;;;;;;;;;5108754;27;20130;-76
2023/01/04 10:45:41;;;;;;;3.67;1.10;;;;;;;;;;5120803;27;20132;-70
2023/01/04 10:48:32;;;;;;;2.58;1.17;;;;;;;;;;5122331;27;20051;-72
2023/01/04 10:51:00;;;;;;;2.88;1.40;;;;;;;;;;5124299;27;20091;-72
2023/01/04 10:53:45;;;;;;;3.22;1.60;;;;;;;;;;5108263;27;20060;-71
2023/01/04 10:56:17;;;;;;;4.65;1.35;;;;;;;;;;5108894;27;20054;-76
2023/01/04 10:58:56;;;;;;;1.77;1.30;;;;;;;;;;5110690;27;20048;-74
2023/01/04 11:01:32;;;;;;;4.68;1.70;;;;;;;;;;5087301;28;20495;-74
2023/01/04 11:04:05;;;;;;;2.75;1.33;;;;;;;;;;5111682;27;20563;-74
2023/01/04 11:06:43;;;;;;;3.90;1.85;;;;;;;;;;5120009;27;20577;-76
2023/01/04 11:09:15;;;;;;;4.15;1.48;;;;;;;;;;5124141;27;20509;-73
2023/01/04 11:11:50;;;;;;;5.78;1.45;;;;;;;;;;5119354;27;20040;-74
2023/01/04 11:14:16;;;;;;;3.13;1.60;;;;;;;;;;5105147;27;20048;-75
2023/01/04 11:16:45;;;;;;;2.38;1.30;;;;;;;;;;5122668;27;20455;-72
2023/01/04 11:19:11;;;;;;;3.78;1.70;;;;;;;;;;5126746;27;20525;-71
2023/01/04 11:21:48;;;;;;;4.63;1.50;;;;;;;;;;5125796;27;20051;-73
2023/01/04 11:24:15;;;;;;;5.00;1.60;;;;;;;;;;5113774;27;20514;-73
2023/01/04 11:27:01;;;;;;;5.63;2.55;;;;;;;;;;5125961;27;20060;-74
2023/01/04 11:29:31;;;;;;;6.80;2.00;;;;;;;;;;5121235;27;20051;-73
2023/01/04 11:32:02;;;;;;;5.35;2.35;;;;;;;;;;5108381;27;20059;-74
2023/01/04 11:34:47;;;;;;;4.13;2.00;;;;;;;;;;5105615;27;20055;-75
2023/01/04 11:37:24;;;;;;;4.35;2.35;;;;;;;;;;5122655;27;20052;-70
2023/01/04 11:40:09;;;;;;;6.05;3.35;;;;;;;;;;5105551;27;20063;-76
2023/01/04 11:42:35;;;;;;;3.90;2.55;;;;;;;;;;5106093;27;20059;-74
2023/01/04 11:45:02;;;;;;;5.10;2.70;;;;;;;;;;5108102;27;20095;-76
2023/01/04 11:47:28;;;;;;;8.77;2.65;;;;;;;;;;5121914;27;20059;-75
2023/01/04 11:49:58;;;;;;;4.97;2.22;;;;;;;;;;5126180;27;20052;-70
2023/01/04 11:52:32;;;;;;;8.75;2.63;;;;;;;;;;5110551;27;20064;-78
2023/01/04 11:55:15;;;;;;;8.05;2.67;;;;;;;;;;5131140;27;20047;-74
2023/01/04 11:57:42;;;;;;;4.88;1.92;;;;;;;;;;5142841;27;20059;-76
2023/01/04 12:00:13;;;;;;;6.93;3.25;;;;;;;;;;5111731;27;20395;-73
2023/01/04 12:02:39;;;;;;;5.38;2.33;;;;;;;;;;5107104;27;20502;-71
2023/01/04 12:05:27;;;;;;;7.78;3.10;;;;;;;;;;5124093;27;20052;-74
2023/01/04 12:07:56;;;;;;;6.18;1.80;;;;;;;;;;5129509;27;20047;-73
2023/01/04 12:10:25;;;;;;;4.20;2.05;;;;;;;;;;5146692;27;20089;-74
2023/01/04 12:12:53;;;;;;;5.60;1.67;;;;;;;;;;5128415;27;20057;-73
2023/01/04 12:15:25;;;;;;;5.22;2.00;;;;;;;;;;5129243;27;20054;-74
2023/01/04 12:17:54;;;;;;;7.68;2.10;;;;;;;;;;5126618;27;20057;-76
2023/01/04 12:20:23;;;;;;;4.55;1.90;;;;;;;;;;5106682;27;20083;-72
2023/01/04 12:22:49;;;;;;;9.05;1.95;;;;;;;;;;5106063;27;20125;-72
2023/01/04 12:25:22;;;;;;;7.25;2.00;;;;;;;;;;5122717;27;20317;-72
2023/01/04 12:27:49;;;;;;;7.05;1.63;;;;;;;;;;5127042;27;20048;-74
2023/01/04 12:30:36;;;;;;;10.23;1.70;;;;;;;;;;5118407;27;20048;-75
2023/01/04 12:33:21;;;;;;;4.70;1.75;;;;;;;;;;5120249;27;20174;-71
2023/01/04 12:35:57;;;;;;;9.60;2.53;;;;;;;;;;5114223;27;20076;-73
2023/01/04 12:38:42;;;;;;;6.70;1.70;;;;;;;;;;5104187;27;20541;-73
2023/01/04 12:41:08;;;;;;;7.40;1.90;;;;;;;;;;5107709;27;21191;-75
2023/01/04 12:43:37;;;;;;;7.13;2.17;;;;;;;;;;5122192;27;20510;-73
2023/01/04 12:49:27;;;;;;;8.88;2.13;;;;;;;;;;5106519;27;20056;-73
2023/01/04 12:52:09;;;;;;;3.50;1.33;;;;;;;;;;5103380;28;20490;-72
2023/01/04 12:55:03;;;;;;;7.78;1.88;;;;;;;;;;5114496;27;20482;-73
2023/01/04 12:57:31;;;;;;;5.30;2.17;;;;;;;;;;5124487;27;20498;-71
2023/01/04 13:00:11;;;;;;;9.90;1.80;;;;;;;;;;5123743;27;20516;-74
2023/01/04 13:02:50;;;;;;;6.90;1.80;;;;;;;;;;5125646;27;20063;-72
2023/01/04 13:05:17;;;;;;;6.43;1.48;;;;;;;;;;5112490;27;20515;-73
2023/01/04 13:08:08;;;;;;;7.72;1.65;;;;;;;;;;5107433;27;20059;-74
2023/01/04 13:10:36;;;;;;;11.38;2.53;;;;;;;;;;5112465;27;20347;-72
2023/01/04 13:13:22;;;;;;;6.00;1.83;;;;;;;;;;5112492;27;20645;-73
2023/01/04 13:16:01;;;;;;;9.88;1.83;;;;;;;;;;5100862;27;20154;-73
2023/01/04 13:18:33;;;;;;;8.38;2.25;;;;;;;;;;5112639;27;20469;-74
2023/01/04 13:21:01;;;;;;;5.28;1.95;;;;;;;;;;5106949;27;20051;-73
2023/01/04 13:23:29;;;;;;;7.57;1.63;;;;;;;;;;5118143;27;20058;-72
2023/01/04 13:25:55;;;;;;;8.80;1.90;;;;;;;;;;5112396;27;20146;-72
2023/01/04 13:28:22;;;;;;;9.93;2.10;;;;;;;;;;5113557;27;20059;-72
2023/01/04 13:30:49;;;;;;;10.50;2.08;;;;;;;;;;5114279;27;20548;-72
2023/01/04 13:33:17;;;;;;;7.30;1.90;;;;;;;;;;5114899;27;20550;-73
2023/01/04 13:36:02;;;;;;;6.03;1.92;;;;;;;;;;5124040;27;20506;-72
2023/01/04 13:38:30;;;;;;;8.55;1.70;;;;;;;;;;5104630;27;20127;-71
2023/01/04 13:40:56;;;;;;;8.00;1.60;;;;;;;;;;5117802;27;20660;-73
2023/01/04 13:43:39;;;;;;;10.93;2.05;;;;;;;;;;5109921;27;20048;-72
2023/01/04 13:46:13;;;;;;;11.75;2.53;;;;;;;;;;5103560;28;20203;-73
2023/01/04 13:48:42;;;;;;;13.85;2.70;;;;;;;;;;5109788;27;20054;-71
2023/01/04 13:51:12;;;;;;;8.27;3.08;;;;;;;;;;5123805;27;20087;-71
2023/01/04 13:53:39;;;;;;;9.07;2.15;;;;;;;;;;5124091;27;20082;-71
2023/01/04 13:56:14;;;;;;;10.43;2.05;;;;;;;;;;5112951;27;20051;-70
2023/01/04 13:58:42;;;;;;;8.75;2.25;;;;;;;;;;5123086;27;20047;-70
2023/01/04 14:01:14;;;;;;;5.57;1.65;;;;;;;;;;5124254;27;20524;-71
2023/01/04 14:03:56;;;;;;;12.85;2.53;;;;;;;;;;5123918;27;20155;-73
2023/01/04 14:06:23;;;;;;;15.65;2.75;;;;;;;;;;5123278;27;20052;-72
2023/01/04 14:08:55;;;;;;;13.50;2.50;;;;;;;;;;5123740;27;20055;-73
2023/01/04 14:14:44;;;;;;;9.75;2.42;;;;;;;;;;5106474;27;20134;-71
2023/01/04 14:17:11;;;;;;;8.95;1.73;;;;;;;;;;5123530;27;20551;-71
2023/01/04 14:19:49;;;;;;;10.13;2.53;;;;;;;;;;5123705;27;20520;-71
2023/01/04 14:22:22;;;;;;;14.43;2.47;;;;;;;;;;5122182;27;20483;-72
2023/01/04 14:24:49;;;;;;;8.00;1.85;;;;;;;;;;5124680;27;20105;-71
2023/01/04 14:27:39;;;;;;;12.35;2.55;;;;;;;;;;5116155;27;20534;-71
2023/01/04 14:30:18;;;;;;;14.32;2.65;;;;;;;;;;5113276;27;20064;-71
2023/01/04 14:32:55;;;;;;;9.07;2.05;;;;;;;;;;5125859;27;20301;-71
2023/01/04 14:35:21;;;;;;;11.05;3.00;;;;;;;;;;5126075;27;20052;-70
2023/01/04 14:37:48;;;;;;;13.35;1.92;;;;;;;;;;5139230;27;20621;-71
2023/01/04 14:40:25;;;;;;;13.57;2.63;;;;;;;;;;5116275;27;20052;-71
2023/01/04 14:42:52;;;;;;;8.57;2.08;;;;;;;;;;5112430;27;20048;-71
2023/01/04 14:45:18;;;;;;;6.75;1.92;;;;;;;;;;5125905;27;20287;-71
2023/01/04 14:47:45;;;;;;;9.60;1.85;;;;;;;;;;5111040;27;20586;-71
2023/01/04 14:50:12;;;;;;;11.70;2.30;;;;;;;;;;5117610;27;20058;-71
2023/01/04 14:52:39;;;;;;;10.93;1.77;;;;;;;;;;5125957;27;20047;-71
2023/01/04 14:55:06;;;;;;;15.13;2.88;;;;;;;;;;5126768;27;20047;-70
2023/01/04 14:57:34;;;;;;;8.75;2.20;;;;;;;;;;5121774;27;20113;-70
2023/01/04 15:00:01;;;;;;;12.45;2.45;;;;;;;;;;5117593;27;20048;-70
2023/01/04 15:02:29;;;;;;;10.52;2.55;;;;;;;;;;5125542;27;20471;-70
2023/01/04 15:04:55;;;;;;;13.68;2.22;;;;;;;;;;5119832;27;20056;-71
2023/01/04 15:07:40;;;;;;;7.35;1.88;;;;;;;;;;5116525;27;20514;-71
2023/01/04 15:10:14;;;;;;;13.63;2.75;;;;;;;;;;5126233;27;20101;-73
2023/01/04 15:12:41;;;;;;;10.35;1.95;;;;;;;;;;5126290;27;20571;-71
2023/01/04 15:15:07;;;;;;;9.80;2.22;;;;;;;;;;5125472;27;20139;-71
2023/01/04 15:17:34;;;;;;;13.02;2.42;;;;;;;;;;5126110;27;20509;-71
2023/01/04 15:20:00;;;;;;;13.10;3.45;;;;;;;;;;5132372;27;20043;-71
2023/01/04 15:22:27;;;;;;;9.45;2.28;;;;;;;;;;5119689;27;20055;-73
2023/01/04 15:24:53;;;;;;;17.92;2.10;;;;;;;;;;5125429;27;20647;-71
2023/01/04 15:27:19;;;;;;;12.18;1.95;;;;;;;;;;5111615;27;20450;-72
2023/01/04 15:29:52;;;;;;;15.32;3.30;;;;;;;;;;5124547;27;20486;-71
2023/01/04 15:32:18;;;;;;;13.05;2.03;;;;;;;;;;5125158;27;20125;-69
2023/01/04 15:34:49;;;;;;;9.82;2.33;;;;;;;;;;5125195;27;20066;-71
2023/01/04 15:37:16;;;;;;;16.67;2.97;;;;;;;;;;5121585;27;20055;-71
2023/01/04 15:39:49;;;;;;;11.98;2.17;;;;;;;;;;5123218;27;20040;-71
2023/01/04 15:45:05;;;;;;;15.88;3.75;;;;;;;;;;5124796;27;20605;-72
2023/01/04 15:47:32;;;;;;;10.32;3.03;;;;;;;;;;5125051;27;20138;-71
2023/01/04 15:49:59;;;;;;;20.85;7.40;;;;;;;;;;5125163;27;20142;-70
2023/01/04 15:52:28;;;;;;;16.80;3.50;;;;;;;;;;5110881;27;20489;-70
2023/01/04 15:54:54;;;;;;;13.75;3.95;;;;;;;;;;5110715;27;20056;-69
2023/01/04 15:57:20;;;;;;;19.02;3.20;;;;;;;;;;5111969;27;20489;-69